createdAt,value
2023-02-14T00:00:31.472Z,0.00
2023-02-14T00:01:31.494Z,0.00
2023-02-14T00:02:31.429Z,0.00
2023-02-14T00:03:31.434Z,0.00
2023-02-14T00:04:31.502Z,0.00
2023-02-14T00:05:31.402Z,0.00
2023-02-14T00:06:31.389Z,0.00
2023-02-14T00:07:31.374Z,0.00
2023-02-14T00:08:31.382Z,0.00
2023-02-14T00:09:31.347Z,0.00
2023-02-14T00:10:31.360Z,0.00
2023-02-14T00:11:31.339Z,0.00
2023-02-14T00:12:31.323Z,0.00
2023-02-14T00:13:31.321Z,0.00
2023-02-14T00:14:31.978Z,0.00
2023-02-14T00:15:31.308Z,0.00
2023-02-14T00:16:31.294Z,0.00
2023-02-14T00:17:31.288Z,0.00
2023-02-14T00:18:31.249Z,0.00
2023-02-14T00:19:31.273Z,0.00
2023-02-14T00:20:31.308Z,0.00
2023-02-14T00:21:31.232Z,0.00
2023-02-14T00:22:31.225Z,0.00
2023-02-14T00:23:31.220Z,0.00
2023-02-14T00:24:31.280Z,0.00
2023-02-14T00:25:31.249Z,0.00
2023-02-14T00:26:31.215Z,0.00
2023-02-14T00:27:31.233Z,0.00
2023-02-14T00:28:31.188Z,0.00
2023-02-14T00:29:31.206Z,0.00
2023-02-14T00:30:31.236Z,0.00
2023-02-14T00:31:31.262Z,0.00
2023-02-14T00:32:31.154Z,0.00
2023-02-14T00:33:31.323Z,0.00
2023-02-14T00:34:31.274Z,0.00
2023-02-14T00:35:31.119Z,0.00
2023-02-14T00:36:31.100Z,0.00
2023-02-14T00:37:31.221Z,0.00
2023-02-14T00:38:31.071Z,0.00
2023-02-14T00:39:31.105Z,0.00
2023-02-14T00:40:31.267Z,0.00
2023-02-14T00:41:31.204Z,0.00
2023-02-14T00:42:31.000Z,0.00
2023-02-14T00:43:31.008Z,0.00
2023-02-14T00:44:31.001Z,0.00
2023-02-14T00:45:31.058Z,0.00
2023-02-14T00:46:30.955Z,0.00
2023-02-14T00:47:30.965Z,0.00
2023-02-14T00:48:30.940Z,0.00
2023-02-14T00:49:30.929Z,0.00
2023-02-14T00:50:31.019Z,0.00
2023-02-14T00:51:30.962Z,0.00
2023-02-14T00:52:30.925Z,0.00
2023-02-14T00:53:30.914Z,0.00
2023-02-14T00:54:30.912Z,0.00
2023-02-14T00:55:31.147Z,0.00
2023-02-14T00:56:30.919Z,0.00
2023-02-14T00:57:30.856Z,0.00
2023-02-14T00:58:30.828Z,0.00
2023-02-14T00:59:30.859Z,0.00
2023-02-14T01:00:31.253Z,0.00
2023-02-14T01:01:31.184Z,0.00
2023-02-14T01:02:30.829Z,0.00
2023-02-14T01:03:31.007Z,0.00
2023-02-14T01:04:30.777Z,0.00
2023-02-14T01:05:30.805Z,0.00
2023-02-14T01:06:30.754Z,0.00
2023-02-14T01:07:30.739Z,0.00
2023-02-14T01:08:30.746Z,0.00
2023-02-14T01:09:30.737Z,0.00
2023-02-14T01:10:30.857Z,0.00
2023-02-14T01:11:30.685Z,0.00
2023-02-14T01:12:30.685Z,0.00
2023-02-14T01:13:30.703Z,0.00
2023-02-14T01:14:30.736Z,0.00
2023-02-14T01:15:30.681Z,0.00
2023-02-14T01:16:30.681Z,0.00
2023-02-14T01:17:30.639Z,0.00
2023-02-14T01:18:30.630Z,0.00
2023-02-14T01:19:30.645Z,0.00
2023-02-14T01:20:31.038Z,0.00
2023-02-14T01:21:30.627Z,0.00
2023-02-14T01:22:30.608Z,0.00
2023-02-14T01:23:30.581Z,0.00
2023-02-14T01:24:30.594Z,0.00
2023-02-14T01:25:30.655Z,0.00
2023-02-14T01:26:30.574Z,0.00
2023-02-14T01:27:30.587Z,0.00
2023-02-14T01:28:30.540Z,0.00
2023-02-14T01:29:30.616Z,0.00
2023-02-14T01:30:30.596Z,0.00
2023-02-14T01:31:30.680Z,0.00
2023-02-14T01:32:30.480Z,0.00
2023-02-14T01:33:30.469Z,0.00
2023-02-14T01:34:30.461Z,0.00
2023-02-14T01:35:30.498Z,0.00
2023-02-14T01:36:30.506Z,0.00
2023-02-14T01:37:30.424Z,0.00
2023-02-14T01:38:30.437Z,0.00
2023-02-14T01:39:30.446Z,0.00
2023-02-14T01:40:30.459Z,0.00
2023-02-14T01:41:30.391Z,0.00
2023-02-14T01:42:30.475Z,0.00
2023-02-14T01:43:30.371Z,0.00
2023-02-14T01:44:30.383Z,0.00
2023-02-14T01:45:30.422Z,0.00
2023-02-14T01:46:30.401Z,0.00
2023-02-14T01:47:30.347Z,0.00
2023-02-14T01:48:30.364Z,0.00
2023-02-14T01:49:30.325Z,0.00
2023-02-14T01:50:30.332Z,0.00
2023-02-14T01:51:30.320Z,0.00
2023-02-14T01:52:30.669Z,0.00
2023-02-14T01:53:30.274Z,0.00
2023-02-14T01:54:30.274Z,0.00
2023-02-14T01:55:30.352Z,0.00
2023-02-14T01:56:30.327Z,0.00
2023-02-14T01:57:30.309Z,0.00
2023-02-14T01:58:30.287Z,0.00
2023-02-14T01:59:30.210Z,0.00
2023-02-14T02:00:30.242Z,0.00
2023-02-14T02:01:30.628Z,0.00
2023-02-14T02:02:30.352Z,0.00
2023-02-14T02:03:30.239Z,0.00
2023-02-14T02:04:30.238Z,0.00
2023-02-14T02:05:30.177Z,0.00
2023-02-14T02:06:30.261Z,0.00
2023-02-14T02:07:30.190Z,0.00
2023-02-14T02:08:30.210Z,0.00
2023-02-14T02:09:30.138Z,0.00
2023-02-14T02:10:30.113Z,0.00
2023-02-14T02:11:30.188Z,0.00
2023-02-14T02:12:31.077Z,0.00
2023-02-14T02:13:30.064Z,0.00
2023-02-14T02:14:30.073Z,0.00
2023-02-14T02:15:30.063Z,0.00
2023-02-14T02:16:30.166Z,0.00
2023-02-14T02:17:30.064Z,0.00
2023-02-14T02:18:30.034Z,0.00
2023-02-14T02:19:30.038Z,0.00
2023-02-14T02:20:30.003Z,0.00
2023-02-14T02:21:29.998Z,0.00
2023-02-14T02:22:29.964Z,0.00
2023-02-14T02:23:30.000Z,0.00
2023-02-14T02:24:29.980Z,0.00
2023-02-14T02:25:29.970Z,0.00
2023-02-14T02:26:30.012Z,0.00
2023-02-14T02:27:29.990Z,0.00
2023-02-14T02:28:29.921Z,0.00
2023-02-14T02:29:29.945Z,0.00
2023-02-14T02:30:30.057Z,0.00
2023-02-14T02:31:30.113Z,0.00
2023-02-14T02:32:29.892Z,0.00
2023-02-14T02:33:29.937Z,0.00
2023-02-14T02:34:29.936Z,0.00
2023-02-14T02:35:29.918Z,0.00
2023-02-14T02:36:29.955Z,0.00
2023-02-14T02:37:29.921Z,0.00
2023-02-14T02:38:29.831Z,0.00
2023-02-14T02:39:29.790Z,0.00
2023-02-14T02:40:29.922Z,0.00
2023-02-14T02:41:29.801Z,0.00
2023-02-14T02:42:29.773Z,0.00
2023-02-14T02:43:29.784Z,0.00
2023-02-14T02:44:29.775Z,0.00
2023-02-14T02:45:29.727Z,0.00
2023-02-14T02:46:30.030Z,0.00
2023-02-14T02:47:29.741Z,0.00
2023-02-14T02:48:29.688Z,0.00
2023-02-14T02:49:29.716Z,0.00
2023-02-14T02:50:29.732Z,0.00
2023-02-14T02:51:29.682Z,0.00
2023-02-14T02:52:29.658Z,0.00
2023-02-14T02:53:29.682Z,0.00
2023-02-14T02:54:29.675Z,0.00
2023-02-14T02:55:29.628Z,0.00
2023-02-14T02:56:29.671Z,0.00
2023-02-14T02:57:29.689Z,0.00
2023-02-14T02:58:29.608Z,0.00
2023-02-14T02:59:29.611Z,0.00
2023-02-14T03:00:29.581Z,0.00
2023-02-14T03:01:29.692Z,0.00
2023-02-14T03:02:29.544Z,0.00
2023-02-14T03:03:29.582Z,0.00
2023-02-14T03:04:29.591Z,0.00
2023-02-14T03:05:29.574Z,0.00
2023-02-14T03:06:29.529Z,0.00
2023-02-14T03:07:29.499Z,0.00
2023-02-14T03:08:29.495Z,0.00
2023-02-14T03:09:29.580Z,0.00
2023-02-14T03:10:29.474Z,0.00
2023-02-14T03:11:29.490Z,0.00
2023-02-14T03:12:29.492Z,0.00
2023-02-14T03:13:29.488Z,0.00
2023-02-14T03:14:29.465Z,0.00
2023-02-14T03:15:29.564Z,0.00
2023-02-14T03:16:29.465Z,0.00
2023-02-14T03:17:29.389Z,0.00
2023-02-14T03:18:29.428Z,0.00
2023-02-14T03:19:29.393Z,0.00
2023-02-14T03:20:29.403Z,0.00
2023-02-14T03:21:29.402Z,0.00
2023-02-14T03:22:29.367Z,0.00
2023-02-14T03:23:29.346Z,0.00
2023-02-14T03:24:29.320Z,0.00
2023-02-14T03:25:29.340Z,0.00
2023-02-14T03:26:29.340Z,0.00
2023-02-14T03:27:29.354Z,0.00
2023-02-14T03:28:29.341Z,0.00
2023-02-14T03:29:29.984Z,0.00
2023-02-14T03:30:29.361Z,0.00
2023-02-14T03:31:29.563Z,0.00
2023-02-14T03:32:29.286Z,0.00
2023-02-14T03:33:29.306Z,0.00
2023-02-14T03:34:29.443Z,0.00
2023-02-14T03:35:29.201Z,0.00
2023-02-14T03:36:29.207Z,0.00
2023-02-14T03:37:29.231Z,0.00
2023-02-14T03:38:29.189Z,0.00
2023-02-14T03:39:29.167Z,0.00
2023-02-14T03:40:29.197Z,0.00
2023-02-14T03:41:29.254Z,0.00
2023-02-14T03:42:29.220Z,0.00
2023-02-14T03:43:29.170Z,0.00
2023-02-14T03:44:29.182Z,0.00
2023-02-14T03:45:29.240Z,0.00
2023-02-14T03:46:29.215Z,0.00
2023-02-14T03:47:29.074Z,0.00
2023-02-14T03:48:32.022Z,0.00
2023-02-14T03:49:29.061Z,0.00
2023-02-14T03:50:29.181Z,0.00
2023-02-14T03:51:29.087Z,0.00
2023-02-14T03:52:29.057Z,0.00
2023-02-14T03:53:29.035Z,0.00
2023-02-14T03:54:29.006Z,0.00
2023-02-14T03:55:28.995Z,0.00
2023-02-14T03:56:29.027Z,0.00
2023-02-14T03:57:29.056Z,0.00
2023-02-14T03:58:28.966Z,0.00
2023-02-14T03:59:28.960Z,0.00
2023-02-14T04:00:28.959Z,0.00
2023-02-14T04:01:28.976Z,0.00
2023-02-14T04:02:28.922Z,0.00
2023-02-14T04:03:28.958Z,0.00
2023-02-14T04:04:28.998Z,0.00
2023-02-14T04:05:28.898Z,0.00
2023-02-14T04:06:28.894Z,0.00
2023-02-14T04:07:28.869Z,0.00
2023-02-14T04:08:28.915Z,0.00
2023-02-14T04:09:28.856Z,0.00
2023-02-14T04:10:28.837Z,0.00
2023-02-14T04:11:28.869Z,0.00
2023-02-14T04:12:37.457Z,0.00
2023-02-14T04:13:29.877Z,0.00
2023-02-14T04:14:29.062Z,0.00
2023-02-14T04:15:28.787Z,0.00
2023-02-14T04:16:28.798Z,0.00
2023-02-14T04:17:28.767Z,0.00
2023-02-14T04:18:28.760Z,0.00
2023-02-14T04:19:28.834Z,0.00
2023-02-14T04:20:28.756Z,0.00
2023-02-14T04:21:28.750Z,0.00
2023-02-14T04:22:28.744Z,0.00
2023-02-14T04:23:28.723Z,0.00
2023-02-14T04:24:28.699Z,0.00
2023-02-14T04:25:28.682Z,0.00
2023-02-14T04:26:28.752Z,0.00
2023-02-14T04:27:28.744Z,0.00
2023-02-14T04:28:28.652Z,0.00
2023-02-14T04:29:28.653Z,0.00
2023-02-14T04:30:28.749Z,0.00
2023-02-14T04:31:28.848Z,0.00
2023-02-14T04:32:28.649Z,0.00
2023-02-14T04:33:28.656Z,0.00
2023-02-14T04:34:28.648Z,0.00
2023-02-14T04:35:28.575Z,0.00
2023-02-14T04:36:28.623Z,0.00
2023-02-14T04:37:28.600Z,0.00
2023-02-14T04:38:28.545Z,0.00
2023-02-14T04:39:28.534Z,0.00
2023-02-14T04:40:28.561Z,0.00
2023-02-14T04:41:29.504Z,0.00
2023-02-14T04:42:28.544Z,0.00
2023-02-14T04:43:28.496Z,0.00
2023-02-14T04:44:28.701Z,0.00
2023-02-14T04:45:28.991Z,0.00
2023-02-14T04:46:28.565Z,0.00
2023-02-14T04:47:28.459Z,0.00
2023-02-14T04:48:28.462Z,0.00
2023-02-14T04:49:28.435Z,0.00
2023-02-14T04:50:28.484Z,0.00
2023-02-14T04:51:28.426Z,0.00
2023-02-14T04:52:28.494Z,0.00
2023-02-14T04:53:28.389Z,0.00
2023-02-14T04:54:28.471Z,0.00
2023-02-14T04:55:28.375Z,0.00
2023-02-14T04:56:28.522Z,0.00
2023-02-14T04:57:28.974Z,0.00
2023-02-14T04:58:28.362Z,0.00
2023-02-14T04:59:28.343Z,0.00
2023-02-14T05:00:28.400Z,0.00
2023-02-14T05:01:28.360Z,0.00
2023-02-14T05:02:28.318Z,0.00
2023-02-14T05:03:28.346Z,0.00
2023-02-14T05:04:28.306Z,0.00
2023-02-14T05:05:28.276Z,0.00
2023-02-14T05:06:28.290Z,0.00
2023-02-14T05:07:28.277Z,0.00
2023-02-14T05:08:28.300Z,0.00
2023-02-14T05:09:28.412Z,0.00
2023-02-14T05:10:28.214Z,0.00
2023-02-14T05:11:28.272Z,0.00
2023-02-14T05:12:28.189Z,0.00
2023-02-14T05:13:28.193Z,0.00
2023-02-14T05:14:28.173Z,0.00
2023-02-14T05:15:28.158Z,0.00
2023-02-14T05:16:28.189Z,0.00
2023-02-14T05:17:28.204Z,0.00
2023-02-14T05:18:28.127Z,0.00
2023-02-14T05:19:28.190Z,0.00
2023-02-14T05:20:28.131Z,0.00
2023-02-14T05:21:28.124Z,0.00
2023-02-14T05:22:28.092Z,0.00
2023-02-14T05:23:28.114Z,0.00
2023-02-14T05:24:28.082Z,0.00
2023-02-14T05:25:28.084Z,0.00
2023-02-14T05:26:28.085Z,0.00
2023-02-14T05:27:28.051Z,0.00
2023-02-14T05:28:28.068Z,0.00
2023-02-14T05:29:28.099Z,0.00
2023-02-14T05:30:28.252Z,0.00
2023-02-14T05:31:28.152Z,0.00
2023-02-14T05:32:27.990Z,0.00
2023-02-14T05:33:27.974Z,0.00
2023-02-14T05:34:27.962Z,0.00
2023-02-14T05:35:28.051Z,0.00
2023-02-14T05:36:28.004Z,0.00
2023-02-14T05:37:27.933Z,0.00
2023-02-14T05:38:27.930Z,0.00
2023-02-14T05:39:27.909Z,0.00
2023-02-14T05:40:27.925Z,0.00
2023-02-14T05:41:27.932Z,0.00
2023-02-14T05:42:27.878Z,0.00
2023-02-14T05:43:27.899Z,0.00
2023-02-14T05:44:27.859Z,0.00
2023-02-14T05:45:27.860Z,0.00
2023-02-14T05:46:27.890Z,0.00
2023-02-14T05:47:27.832Z,0.00
2023-02-14T05:48:27.840Z,0.00
2023-02-14T05:49:27.832Z,0.00
2023-02-14T05:50:27.845Z,0.00
2023-02-14T05:51:27.811Z,0.00
2023-02-14T05:52:27.794Z,0.00
2023-02-14T05:53:27.778Z,0.00
2023-02-14T05:54:27.761Z,0.00
2023-02-14T05:55:27.776Z,0.00
2023-02-14T05:56:27.800Z,0.00
2023-02-14T05:57:27.736Z,0.00
2023-02-14T05:58:27.753Z,0.00
2023-02-14T05:59:27.742Z,0.00
2023-02-14T06:00:27.709Z,0.00
2023-02-14T06:01:27.710Z,0.00
2023-02-14T06:02:27.707Z,0.00
2023-02-14T06:03:27.715Z,4.00
2023-02-14T06:04:27.761Z,0.00
2023-02-14T06:05:27.694Z,0.00
2023-02-14T06:06:28.016Z,4.00
2023-02-14T06:07:27.627Z,4.00
2023-02-14T06:08:27.630Z,4.00
2023-02-14T06:09:27.612Z,4.00
2023-02-14T06:10:27.625Z,8.00
2023-02-14T06:11:27.607Z,4.00
2023-02-14T06:12:27.618Z,8.00
2023-02-14T06:13:28.531Z,12.00
2023-02-14T06:14:27.591Z,12.00
2023-02-14T06:15:27.600Z,16.00
2023-02-14T06:16:27.657Z,20.00
2023-02-14T06:17:27.569Z,20.00
2023-02-14T06:18:27.526Z,28.00
2023-02-14T06:19:27.609Z,32.00
2023-02-14T06:20:27.540Z,40.00
2023-02-14T06:21:27.485Z,48.00
2023-02-14T06:22:29.218Z,52.00
2023-02-14T06:23:27.470Z,64.00
2023-02-14T06:24:27.495Z,76.00
2023-02-14T06:25:27.463Z,92.00
2023-02-14T06:26:27.460Z,104.00
2023-02-14T06:27:27.441Z,120.00
2023-02-14T06:28:27.447Z,136.00
2023-02-14T06:29:27.482Z,156.00
2023-02-14T06:30:27.640Z,176.00
2023-02-14T06:31:27.527Z,200.00
2023-02-14T06:32:27.367Z,224.00
2023-02-14T06:33:27.378Z,248.00
2023-02-14T06:34:27.447Z,280.00
2023-02-14T06:35:27.362Z,304.00
2023-02-14T06:36:27.512Z,340.00
2023-02-14T06:37:27.332Z,376.00
2023-02-14T06:38:27.404Z,408.00
2023-02-14T06:39:27.307Z,440.00
2023-02-14T06:40:27.385Z,472.00
2023-02-14T06:41:27.364Z,508.00
2023-02-14T06:42:27.310Z,548.00
2023-02-14T06:43:27.337Z,584.00
2023-02-14T06:44:27.324Z,616.00
2023-02-14T06:45:27.238Z,656.00
2023-02-14T06:46:27.276Z,696.00
2023-02-14T06:47:27.322Z,740.00
2023-02-14T06:48:27.239Z,780.00
2023-02-14T06:49:27.272Z,828.00
2023-02-14T06:50:27.183Z,872.00
2023-02-14T06:51:27.200Z,912.00
2023-02-14T06:52:27.209Z,956.00
2023-02-14T06:53:27.202Z,1012.00
2023-02-14T06:54:27.156Z,1068.00
2023-02-14T06:55:27.191Z,1124.00
2023-02-14T06:56:27.600Z,1180.00
2023-02-14T06:57:27.121Z,1240.00
2023-02-14T06:58:27.143Z,1300.00
2023-02-14T06:59:27.135Z,1352.00
2023-02-14T07:00:27.187Z,1416.00
2023-02-14T07:01:27.204Z,1484.00
2023-02-14T07:02:27.202Z,1536.00
2023-02-14T07:03:27.050Z,1604.00
2023-02-14T07:04:27.043Z,1668.00
2023-02-14T07:05:27.157Z,1732.00
2023-02-14T07:06:27.064Z,1788.00
2023-02-14T07:07:27.079Z,1840.00
2023-02-14T07:08:27.006Z,1900.00
2023-02-14T07:09:26.991Z,1948.00
2023-02-14T07:10:27.078Z,1980.00
2023-02-14T07:11:27.038Z,2056.00
2023-02-14T07:12:27.075Z,2140.00
2023-02-14T07:13:27.003Z,2212.00
2023-02-14T07:14:26.973Z,2244.00
2023-02-14T07:15:27.069Z,2304.00
2023-02-14T07:16:26.997Z,2384.00
2023-02-14T07:17:26.942Z,2468.00
2023-02-14T07:18:26.933Z,2516.00
2023-02-14T07:19:26.916Z,2576.00
2023-02-14T07:20:26.973Z,2636.00
2023-02-14T07:21:26.895Z,2712.00
2023-02-14T07:22:26.894Z,2776.00
2023-02-14T07:23:26.844Z,2876.00
2023-02-14T07:24:27.006Z,2976.00
2023-02-14T07:25:26.836Z,3080.00
2023-02-14T07:26:26.873Z,3224.00
2023-02-14T07:27:26.865Z,3284.00
2023-02-14T07:28:26.946Z,3408.00
2023-02-14T07:29:26.816Z,3476.00
2023-02-14T07:30:26.863Z,3516.00
2023-02-14T07:31:26.885Z,3676.00
2023-02-14T07:32:27.075Z,3756.00
2023-02-14T07:33:26.782Z,3756.00
2023-02-14T07:34:26.730Z,3760.00
2023-02-14T07:35:26.723Z,3776.00
2023-02-14T07:36:26.784Z,3848.00
2023-02-14T07:37:27.008Z,3952.00
2023-02-14T07:38:26.796Z,4072.00
2023-02-14T07:39:26.823Z,4156.00
2023-02-14T07:40:26.720Z,4220.00
2023-02-14T07:41:26.695Z,4288.00
2023-02-14T07:42:26.712Z,4216.00
2023-02-14T07:43:26.640Z,4104.00
2023-02-14T07:44:26.671Z,4144.00
2023-02-14T07:45:26.679Z,4292.00
2023-02-14T07:46:26.778Z,4436.00
2023-02-14T07:47:26.659Z,4536.00
2023-02-14T07:48:28.851Z,4608.00
2023-02-14T07:49:26.680Z,4620.00
2023-02-14T07:50:26.599Z,4656.00
2023-02-14T07:51:26.611Z,4728.00
2023-02-14T07:52:26.562Z,4804.00
2023-02-14T07:53:26.584Z,4940.00
2023-02-14T07:54:26.664Z,5032.00
2023-02-14T07:55:26.577Z,5084.00
2023-02-14T07:56:27.057Z,5196.00
2023-02-14T07:57:26.505Z,5288.00
2023-02-14T07:58:26.510Z,5416.00
2023-02-14T07:59:26.467Z,5592.00
2023-02-14T08:00:26.500Z,5664.00
2023-02-14T08:01:26.525Z,5708.00
2023-02-14T08:02:26.441Z,5856.00
2023-02-14T08:03:27.029Z,6068.00
2023-02-14T08:04:26.507Z,6380.00
2023-02-14T08:05:26.549Z,6664.00
2023-02-14T08:06:26.433Z,6824.00
2023-02-14T08:07:26.436Z,6852.00
2023-02-14T08:08:26.690Z,6936.00
2023-02-14T08:09:26.367Z,7120.00
2023-02-14T08:10:26.361Z,7336.00
2023-02-14T08:11:26.433Z,7408.00
2023-02-14T08:12:26.456Z,7452.00
2023-02-14T08:13:26.364Z,7572.00
2023-02-14T08:14:26.464Z,7804.00
2023-02-14T08:15:26.349Z,7940.00
2023-02-14T08:16:26.463Z,8040.00
2023-02-14T08:17:26.293Z,8028.00
2023-02-14T08:18:26.318Z,8108.00
2023-02-14T08:19:26.319Z,8232.00
2023-02-14T08:20:26.322Z,8284.00
2023-02-14T08:21:27.017Z,8512.00
2023-02-14T08:22:26.260Z,8616.00
2023-02-14T08:23:26.227Z,8608.00
2023-02-14T08:24:26.261Z,8800.00
2023-02-14T08:25:26.231Z,9116.00
2023-02-14T08:26:26.213Z,9196.00
2023-02-14T08:27:26.356Z,8984.00
2023-02-14T08:28:26.181Z,8836.00
2023-02-14T08:29:26.164Z,8896.00
2023-02-14T08:30:26.270Z,8952.00
2023-02-14T08:31:35.087Z,9320.00
2023-02-14T08:32:27.378Z,9412.00
2023-02-14T08:33:26.119Z,9156.00
2023-02-14T08:34:26.172Z,9352.00
2023-02-14T08:35:26.304Z,9516.00
2023-02-14T08:36:26.151Z,9816.00
2023-02-14T08:37:26.123Z,9812.00
2023-02-14T08:38:26.194Z,9344.00
2023-02-14T08:39:26.062Z,9416.00
2023-02-14T08:40:26.232Z,9572.00
2023-02-14T08:41:26.043Z,9460.00
2023-02-14T08:42:26.018Z,9616.00
2023-02-14T08:43:26.019Z,9896.00
2023-02-14T08:44:26.070Z,10172.00
2023-02-14T08:45:25.989Z,10560.00
2023-02-14T08:46:26.018Z,10712.00
2023-02-14T08:47:25.998Z,10772.00
2023-02-14T08:48:25.989Z,10824.00
2023-02-14T08:49:25.950Z,10900.00
2023-02-14T08:50:25.946Z,11000.00
2023-02-14T08:51:25.958Z,10956.00
2023-02-14T08:52:26.033Z,10536.00
2023-02-14T08:53:25.914Z,10520.00
2023-02-14T08:54:25.920Z,10772.00
2023-02-14T08:55:25.908Z,10808.00
2023-02-14T08:56:25.902Z,10980.00
2023-02-14T08:57:25.888Z,11148.00
2023-02-14T08:58:25.884Z,11192.00
2023-02-14T08:59:25.843Z,11240.00
2023-02-14T09:00:25.880Z,11260.00
2023-02-14T09:01:25.909Z,11420.00
2023-02-14T09:02:25.827Z,11340.00
2023-02-14T09:03:25.843Z,11280.00
2023-02-14T09:04:25.830Z,11368.00
2023-02-14T09:05:25.856Z,11612.00
2023-02-14T09:06:25.784Z,11508.00
2023-02-14T09:07:25.759Z,11932.00
2023-02-14T09:08:25.802Z,12228.00
2023-02-14T09:09:25.745Z,12304.00
2023-02-14T09:10:25.826Z,12076.00
2023-02-14T09:11:25.770Z,12124.00
2023-02-14T09:12:25.711Z,12484.00
2023-02-14T09:13:25.729Z,13188.00
2023-02-14T09:14:25.689Z,13056.00
2023-02-14T09:15:25.746Z,13076.00
2023-02-14T09:16:25.762Z,13396.00
2023-02-14T09:17:25.667Z,14232.00
2023-02-14T09:18:25.800Z,14532.00
2023-02-14T09:19:25.635Z,14152.00
2023-02-14T09:20:25.697Z,13564.00
2023-02-14T09:21:25.629Z,13372.00
2023-02-14T09:22:25.602Z,13952.00
2023-02-14T09:23:25.622Z,14200.00
2023-02-14T09:24:25.604Z,14248.00
2023-02-14T09:25:25.607Z,14240.00
2023-02-14T09:26:25.577Z,14072.00
2023-02-14T09:27:25.558Z,13704.00
2023-02-14T09:28:25.605Z,13716.00
2023-02-14T09:29:25.529Z,13600.00
2023-02-14T09:30:25.678Z,13464.00
2023-02-14T09:31:25.692Z,13656.00
2023-02-14T09:32:25.576Z,13664.00
2023-02-14T09:33:25.500Z,13644.00
2023-02-14T09:34:25.493Z,13592.00
2023-02-14T09:35:25.520Z,13396.00
2023-02-14T09:36:25.484Z,13556.00
2023-02-14T09:37:25.460Z,13916.00
2023-02-14T09:38:25.445Z,14080.00
2023-02-14T09:39:25.424Z,14316.00
2023-02-14T09:40:25.456Z,14148.00
2023-02-14T09:41:25.483Z,14408.00
2023-02-14T09:42:25.388Z,15124.00
2023-02-14T09:43:25.393Z,15392.00
2023-02-14T09:44:25.439Z,14980.00
2023-02-14T09:45:25.359Z,14900.00
2023-02-14T09:46:25.369Z,14980.00
2023-02-14T09:47:25.335Z,16044.00
2023-02-14T09:48:27.220Z,16800.00
2023-02-14T09:49:25.500Z,16180.00
2023-02-14T09:50:25.370Z,15500.00
2023-02-14T09:51:25.295Z,14800.00
2023-02-14T09:52:25.306Z,14828.00
2023-02-14T09:53:25.274Z,15584.00
2023-02-14T09:54:25.289Z,16236.00
2023-02-14T09:55:25.257Z,16768.00
2023-02-14T09:56:25.341Z,16672.00
2023-02-14T09:57:25.295Z,16544.00
2023-02-14T09:58:27.642Z,16104.00
2023-02-14T09:59:25.219Z,15472.00
2023-02-14T10:00:25.215Z,15044.00
2023-02-14T10:01:25.369Z,14880.00
2023-02-14T10:02:25.298Z,14656.00
2023-02-14T10:03:25.172Z,14752.00
2023-02-14T10:04:25.179Z,14868.00
2023-02-14T10:05:25.158Z,15040.00
2023-02-14T10:06:25.186Z,15264.00
2023-02-14T10:07:25.139Z,15788.00
2023-02-14T10:08:25.122Z,16256.00
2023-02-14T10:09:25.112Z,16448.00
2023-02-14T10:10:25.130Z,16480.00
2023-02-14T10:11:25.116Z,16736.00
2023-02-14T10:12:25.181Z,16512.00
2023-02-14T10:13:25.060Z,16320.00
2023-02-14T10:14:25.054Z,16608.00
2023-02-14T10:15:25.045Z,16608.00
2023-02-14T10:16:26.869Z,16100.00
2023-02-14T10:17:25.061Z,15620.00
2023-02-14T10:18:25.017Z,15436.00
2023-02-14T10:19:25.007Z,15532.00
2023-02-14T10:20:24.989Z,16032.00
2023-02-14T10:21:25.004Z,16576.00
2023-02-14T10:22:24.970Z,16800.00
2023-02-14T10:23:24.984Z,16640.00
2023-02-14T10:24:24.960Z,16704.00
2023-02-14T10:25:24.947Z,17248.00
2023-02-14T10:26:24.962Z,17696.00
2023-02-14T10:27:24.938Z,17344.00
2023-02-14T10:28:24.905Z,17152.00
2023-02-14T10:29:24.983Z,17184.00
2023-02-14T10:30:25.011Z,17568.00
2023-02-14T10:31:25.074Z,17568.00
2023-02-14T10:32:24.955Z,17600.00
2023-02-14T10:33:24.853Z,17760.00
2023-02-14T10:34:24.849Z,17472.00
2023-02-14T10:35:24.867Z,17312.00
2023-02-14T10:36:24.848Z,17024.00
2023-02-14T10:37:24.809Z,16832.00
2023-02-14T10:38:24.808Z,16056.00
2023-02-14T10:39:24.808Z,15844.00
2023-02-14T10:40:24.780Z,15916.00
2023-02-14T10:41:24.850Z,16280.00
2023-02-14T10:42:24.777Z,16800.00
2023-02-14T10:43:24.764Z,17120.00
2023-02-14T10:44:24.778Z,16704.00
2023-02-14T10:45:24.736Z,15960.00
2023-02-14T10:46:24.787Z,16100.00
2023-02-14T10:47:24.760Z,16992.00
2023-02-14T10:48:24.702Z,17536.00
2023-02-14T10:49:24.687Z,18080.00
2023-02-14T10:50:24.673Z,19104.00
2023-02-14T10:51:24.689Z,19552.00
2023-02-14T10:52:24.698Z,19488.00
2023-02-14T10:53:24.662Z,19072.00
2023-02-14T10:54:24.637Z,18688.00
2023-02-14T10:55:32.289Z,18816.00
2023-02-14T10:56:25.640Z,17984.00
2023-02-14T10:57:24.610Z,17152.00
2023-02-14T10:58:24.613Z,16960.00
2023-02-14T10:59:24.593Z,16608.00
2023-02-14T11:00:24.576Z,15912.00
2023-02-14T11:01:24.641Z,15452.00
2023-02-14T11:02:24.563Z,15748.00
2023-02-14T11:03:24.595Z,16228.00
2023-02-14T11:04:24.563Z,16400.00
2023-02-14T11:05:24.523Z,16640.00
2023-02-14T11:06:24.530Z,16672.00
2023-02-14T11:07:24.497Z,16768.00
2023-02-14T11:08:24.491Z,16332.00
2023-02-14T11:09:24.528Z,16768.00
2023-02-14T11:10:24.543Z,16064.00
2023-02-14T11:11:24.495Z,15896.00
2023-02-14T11:12:24.484Z,16140.00
2023-02-14T11:13:24.431Z,16384.00
2023-02-14T11:14:24.440Z,16352.00
2023-02-14T11:15:24.494Z,16352.00
2023-02-14T11:16:24.424Z,16672.00
2023-02-14T11:17:24.391Z,16324.00
2023-02-14T11:18:24.394Z,17088.00
2023-02-14T11:19:24.368Z,17216.00
2023-02-14T11:20:24.457Z,16992.00
2023-02-14T11:21:24.428Z,16928.00
2023-02-14T11:22:24.333Z,17024.00
2023-02-14T11:23:24.336Z,17184.00
2023-02-14T11:24:24.349Z,17184.00
2023-02-14T11:25:24.309Z,17504.00
2023-02-14T11:26:24.347Z,17760.00
2023-02-14T11:27:24.344Z,17664.00
2023-02-14T11:28:24.272Z,17792.00
2023-02-14T11:29:24.275Z,17664.00
2023-02-14T11:30:24.306Z,17536.00
2023-02-14T11:31:24.439Z,17920.00
2023-02-14T11:32:24.301Z,17728.00
2023-02-14T11:33:24.229Z,18176.00
2023-02-14T11:34:24.255Z,18112.00
2023-02-14T11:35:24.245Z,18336.00
2023-02-14T11:36:24.211Z,18272.00
2023-02-14T11:37:24.177Z,18176.00
2023-02-14T11:38:24.174Z,18048.00
2023-02-14T11:39:24.168Z,17728.00
2023-02-14T11:40:24.145Z,17824.00
2023-02-14T11:41:25.207Z,17856.00
2023-02-14T11:42:24.120Z,17568.00
2023-02-14T11:43:24.109Z,17792.00
2023-02-14T11:44:24.117Z,18176.00
2023-02-14T11:45:24.102Z,18336.00
2023-02-14T11:46:24.272Z,18336.00
2023-02-14T11:47:24.130Z,18176.00
2023-02-14T11:48:37.265Z,18240.00
2023-02-14T11:49:25.059Z,18464.00
2023-02-14T11:50:24.042Z,19456.00
2023-02-14T11:51:24.051Z,19264.00
2023-02-14T11:52:24.019Z,18592.00
2023-02-14T11:53:24.042Z,18592.00
2023-02-14T11:54:23.999Z,18656.00
2023-02-14T11:55:23.998Z,18976.00
2023-02-14T11:56:24.005Z,18880.00
2023-02-14T11:57:23.990Z,18560.00
2023-02-14T11:58:23.958Z,18336.00
2023-02-14T11:59:23.988Z,18336.00
2023-02-14T12:00:24.075Z,18848.00
2023-02-14T12:01:23.963Z,18976.00
2023-02-14T12:02:23.951Z,18944.00
2023-02-14T12:03:23.952Z,18848.00
2023-02-14T12:04:23.904Z,18976.00
2023-02-14T12:05:23.950Z,18944.00
2023-02-14T12:06:23.891Z,19008.00
2023-02-14T12:07:23.865Z,18656.00
2023-02-14T12:08:23.851Z,18592.00
2023-02-14T12:09:23.888Z,18624.00
2023-02-14T12:10:23.857Z,18656.00
2023-02-14T12:11:23.842Z,18496.00
2023-02-14T12:12:23.918Z,18752.00
2023-02-14T12:13:23.801Z,18560.00
2023-02-14T12:14:23.786Z,18304.00
2023-02-14T12:15:23.810Z,18112.00
2023-02-14T12:16:23.794Z,17472.00
2023-02-14T12:17:23.823Z,17024.00
2023-02-14T12:18:23.772Z,16544.00
2023-02-14T12:19:23.755Z,15980.00
2023-02-14T12:20:23.728Z,15748.00
2023-02-14T12:21:23.752Z,15576.00
2023-02-14T12:22:23.726Z,15000.00
2023-02-14T12:23:23.698Z,14644.00
2023-02-14T12:24:23.913Z,14536.00
2023-02-14T12:25:23.674Z,14512.00
2023-02-14T12:26:23.824Z,14500.00
2023-02-14T12:27:23.678Z,15032.00
2023-02-14T12:28:23.665Z,15272.00
2023-02-14T12:29:23.638Z,15520.00
2023-02-14T12:30:23.690Z,16044.00
2023-02-14T12:31:23.725Z,16736.00
2023-02-14T12:32:23.620Z,17056.00
2023-02-14T12:33:23.592Z,16896.00
2023-02-14T12:34:23.585Z,17184.00